createdAt,value
2022-08-09T00:00:00.761Z,60.33
2022-08-09T00:02:37.147Z,60.54
2022-08-09T00:06:19.204Z,60.23
2022-08-09T00:07:56.479Z,60.38
2022-08-09T00:10:27.853Z,60.54
2022-08-09T00:12:54.589Z,60.53
2022-08-09T00:15:46.080Z,61.05
2022-08-09T00:18:11.539Z,60.76
2022-08-09T00:20:42.136Z,61.01
2022-08-09T00:23:57.490Z,60.98
2022-08-09T00:26:04.893Z,61.16
2022-08-09T00:28:31.957Z,61.00
2022-08-09T00:31:02.405Z,60.96
2022-08-09T00:33:54.122Z,61.08
2022-08-09T00:36:22.279Z,61.08
2022-08-09T00:38:54.358Z,61.13
2022-08-09T00:44:14.086Z,60.93
2022-08-09T00:44:19.712Z,61.13
2022-08-09T00:47:04.978Z,61.28
2022-08-09T00:49:36.853Z,61.43
2022-08-09T00:52:16.055Z,61.47
2022-08-09T00:54:45.429Z,61.43
2022-08-09T00:57:12.403Z,61.37
2022-08-09T00:59:47.160Z,61.69
2022-08-09T01:02:21.768Z,61.64
2022-08-09T01:05:13.941Z,61.65
2022-08-09T01:08:00.293Z,61.71
2022-08-09T01:10:56.196Z,61.63
2022-08-09T01:13:53.404Z,61.72
2022-08-09T01:16:26.730Z,61.95
2022-08-09T01:19:04.715Z,62.24
2022-08-09T01:21:50.842Z,62.19
2022-08-09T01:24:40.146Z,61.99
2022-08-09T01:27:12.542Z,62.12
2022-08-09T01:29:55.698Z,62.02
2022-08-09T01:32:34.328Z,62.00
2022-08-09T01:35:28.594Z,62.13
2022-08-09T01:38:08.478Z,61.96
2022-08-09T01:40:42.470Z,62.25
2022-08-09T01:43:10.777Z,62.14
2022-08-09T01:45:46.454Z,62.15
2022-08-09T01:48:19.433Z,62.48
2022-08-09T01:50:55.157Z,62.37
2022-08-09T01:53:23.765Z,62.28
2022-08-09T01:55:56.744Z,62.36
2022-08-09T01:58:26.144Z,62.48
2022-08-09T02:00:57.281Z,62.62
2022-08-09T02:03:25.462Z,62.81
2022-08-09T02:06:06.285Z,62.83
2022-08-09T02:08:57.318Z,63.01
2022-08-09T02:11:42.204Z,63.13
2022-08-09T02:14:14.989Z,62.99
2022-08-09T02:16:59.948Z,63.26
2022-08-09T02:19:43.342Z,63.26
2022-08-09T02:22:19.091Z,63.42
2022-08-09T02:24:58.395Z,63.57
2022-08-09T02:27:43.531Z,63.31
2022-08-09T02:30:17.979Z,63.29
2022-08-09T02:32:47.385Z,63.53
2022-08-09T02:35:26.074Z,63.35
2022-08-09T02:38:09.545Z,63.29
2022-08-09T02:40:38.884Z,63.70
2022-08-09T02:43:08.610Z,63.59
2022-08-09T02:45:44.719Z,63.67
2022-08-09T02:48:29.721Z,63.60
2022-08-09T02:51:02.402Z,63.75
2022-08-09T02:53:43.060Z,63.68
2022-08-09T02:56:20.932Z,63.72
2022-08-09T02:58:50.217Z,63.81
2022-08-09T03:01:21.788Z,63.83
2022-08-09T03:04:13.310Z,64.09
2022-08-09T03:06:45.465Z,64.45
2022-08-09T03:09:13.842Z,64.51
2022-08-09T03:12:09.768Z,64.29
2022-08-09T03:14:31.719Z,64.15
2022-08-09T03:17:01.854Z,64.14
2022-08-09T03:19:52.769Z,64.16
2022-08-09T03:22:30.478Z,64.38
2022-08-09T03:25:19.849Z,64.21
2022-08-09T03:27:50.689Z,64.38
2022-08-09T03:30:29.683Z,64.53
2022-08-09T03:33:12.678Z,64.95
2022-08-09T03:36:11.478Z,64.69
2022-08-09T03:38:28.975Z,64.84
2022-08-09T03:40:57.787Z,64.69
2022-08-09T03:43:24.271Z,64.58
2022-08-09T03:46:04.208Z,64.95
2022-08-09T03:48:42.920Z,65.27
2022-08-09T03:51:44.031Z,64.84
2022-08-09T03:54:06.191Z,64.84
2022-08-09T03:56:41.378Z,64.84
2022-08-09T03:59:13.526Z,64.88
2022-08-09T04:01:44.573Z,64.90
2022-08-09T04:04:14.730Z,65.23
2022-08-09T04:06:41.465Z,65.18
2022-08-09T04:09:47.410Z,65.16
2022-08-09T04:12:12.024Z,65.08
2022-08-09T04:15:01.694Z,65.10
2022-08-09T04:17:29.783Z,65.20
2022-08-09T04:19:56.557Z,65.29
2022-08-09T04:22:23.527Z,65.75
2022-08-09T04:24:50.126Z,65.48
2022-08-09T04:27:17.159Z,65.36
2022-08-09T04:29:49.954Z,65.26
2022-08-09T04:32:17.167Z,65.59
2022-08-09T04:35:01.360Z,66.02
2022-08-09T04:37:42.120Z,65.82
2022-08-09T04:40:19.193Z,65.69
2022-08-09T04:42:55.784Z,65.67
2022-08-09T04:45:23.562Z,65.82
2022-08-09T04:48:01.195Z,65.93
2022-08-09T04:50:34.959Z,66.02
2022-08-09T04:53:13.024Z,66.18
2022-08-09T04:55:58.126Z,66.50
2022-08-09T04:58:28.999Z,66.26
2022-08-09T05:00:56.840Z,66.46
2022-08-09T05:03:40.234Z,66.79
2022-08-09T05:06:27.346Z,66.50
2022-08-09T05:09:00.474Z,66.77
2022-08-09T05:11:30.614Z,66.96
2022-08-09T05:14:02.485Z,66.86
2022-08-09T05:16:58.526Z,66.89
2022-08-09T05:19:26.119Z,66.89
2022-08-09T05:21:58.944Z,67.34
2022-08-09T05:24:26.977Z,67.47
2022-08-09T05:26:54.514Z,67.77
2022-08-09T05:29:22.697Z,67.63
2022-08-09T05:31:57.521Z,68.14
2022-08-09T05:34:30.578Z,67.93
2022-08-09T05:37:01.737Z,68.25
2022-08-09T05:39:35.815Z,68.45
2022-08-09T05:42:04.596Z,68.05
2022-08-09T05:44:32.751Z,68.25
2022-08-09T05:47:00.089Z,68.54
2022-08-09T05:50:16.889Z,68.42
2022-08-09T05:52:13.268Z,68.36
2022-08-09T05:54:40.333Z,68.56
2022-08-09T05:57:07.477Z,69.08
2022-08-09T05:59:39.418Z,68.60
2022-08-09T06:02:09.074Z,68.81
2022-08-09T06:04:36.775Z,68.89
2022-08-09T06:07:11.020Z,68.99
2022-08-09T06:10:02.123Z,69.05
2022-08-09T06:12:30.641Z,69.01
2022-08-09T06:15:01.009Z,69.23
2022-08-09T06:17:39.888Z,69.27
2022-08-09T06:20:08.016Z,68.93
2022-08-09T06:22:35.033Z,68.95
2022-08-09T06:25:02.395Z,69.01
2022-08-09T06:27:42.500Z,68.99
2022-08-09T06:30:10.959Z,69.03
2022-08-09T06:32:59.481Z,69.10
2022-08-09T06:35:55.814Z,69.14
2022-08-09T06:38:15.823Z,68.38
2022-08-09T06:40:42.727Z,68.95
2022-08-09T06:43:10.663Z,69.27
2022-08-09T06:46:07.478Z,68.92
2022-08-09T06:48:30.585Z,68.85
2022-08-09T06:50:59.815Z,69.00
2022-08-09T06:53:26.699Z,68.95
2022-08-09T06:55:53.352Z,68.74
2022-08-09T07:00:47.261Z,68.83
2022-08-09T07:01:06.535Z,69.03
2022-08-09T07:03:39.710Z,68.98
2022-08-09T07:06:18.826Z,68.92
2022-08-09T07:08:46.762Z,68.95
2022-08-09T07:11:23.542Z,69.05
2022-08-09T07:14:05.530Z,68.87
2022-08-09T07:16:42.430Z,68.82
2022-08-09T07:19:23.209Z,69.00
2022-08-09T07:21:57.071Z,69.12
2022-08-09T07:24:31.368Z,68.89
2022-08-09T07:27:01.285Z,68.90
2022-08-09T07:29:37.739Z,69.12
2022-08-09T07:32:05.858Z,69.22
2022-08-09T07:34:32.352Z,69.26
2022-08-09T07:37:02.775Z,68.93
2022-08-09T07:39:40.969Z,68.93
2022-08-09T07:42:08.741Z,69.49
2022-08-09T07:44:53.322Z,69.11
2022-08-09T07:47:23.203Z,69.29
2022-08-09T07:50:04.589Z,68.68
2022-08-09T07:52:35.880Z,68.96
2022-08-09T07:55:04.032Z,68.81
2022-08-09T07:57:36.449Z,68.46
2022-08-09T08:00:08.797Z,68.44
2022-08-09T08:02:42.976Z,68.19
2022-08-09T08:05:18.794Z,68.63
2022-08-09T08:08:44.262Z,68.05
2022-08-09T08:10:34.702Z,67.53
2022-08-09T08:13:03.901Z,68.18
2022-08-09T08:15:35.526Z,67.11
2022-08-09T08:18:04.438Z,67.50
2022-08-09T08:20:32.638Z,67.24
2022-08-09T08:23:06.630Z,66.78
2022-08-09T08:25:46.416Z,66.16
2022-08-09T08:28:18.413Z,66.06
2022-08-09T08:30:53.228Z,66.15
2022-08-09T08:33:23.959Z,65.85
2022-08-09T08:36:00.115Z,64.66
2022-08-09T08:38:29.432Z,62.84
2022-08-09T08:40:57.327Z,62.89
2022-08-09T08:43:24.598Z,63.04
2022-08-09T08:46:09.908Z,61.70
2022-08-09T08:48:51.780Z,61.34
2022-08-09T08:51:21.300Z,61.12
2022-08-09T08:54:03.206Z,61.39
2022-08-09T08:56:37.644Z,59.26
2022-08-09T08:59:19.764Z,59.45
2022-08-09T09:01:53.455Z,60.23
2022-08-09T09:04:27.667Z,60.49
2022-08-09T09:06:57.915Z,59.54
2022-08-09T09:09:58.101Z,58.92
2022-08-09T09:12:17.467Z,58.69
2022-08-09T09:14:45.156Z,57.78
2022-08-09T09:17:12.999Z,57.27
2022-08-09T09:19:43.883Z,56.82
2022-08-09T09:22:16.261Z,56.95
2022-08-09T09:24:43.535Z,57.12
2022-08-09T09:28:03.084Z,57.15
2022-08-09T09:30:20.145Z,56.46
2022-08-09T09:33:15.498Z,56.39
2022-08-09T09:36:02.071Z,56.16
2022-08-09T09:38:56.679Z,53.60
2022-08-09T09:41:23.949Z,54.23
2022-08-09T09:44:12.373Z,54.17
2022-08-09T09:46:43.059Z,53.48
2022-08-09T09:49:32.202Z,53.17
2022-08-09T09:52:33.725Z,51.24
2022-08-09T09:55:24.019Z,51.24
2022-08-09T09:58:16.734Z,50.45
2022-08-09T10:00:59.071Z,50.31
2022-08-09T10:03:56.245Z,50.08
2022-08-09T10:06:38.562Z,49.68
2022-08-09T10:09:23.242Z,49.55
2022-08-09T10:12:14.678Z,50.23
2022-08-09T10:14:49.285Z,49.84
2022-08-09T10:17:39.930Z,50.12
2022-08-09T10:20:26.938Z,49.94
2022-08-09T10:23:13.488Z,49.39
2022-08-09T10:26:07.297Z,48.34
2022-08-09T10:28:32.865Z,47.98
2022-08-09T10:34:10.277Z,46.94
2022-08-09T10:36:33.327Z,47.13
2022-08-09T10:39:02.221Z,44.60
2022-08-09T10:41:28.678Z,44.30
2022-08-09T10:44:00.000Z,45.28
2022-08-09T10:47:20.482Z,44.76
2022-08-09T10:50:31.267Z,42.46
2022-08-09T10:53:19.412Z,40.07
2022-08-09T10:55:58.714Z,34.96
2022-08-09T10:58:34.717Z,33.22
2022-08-09T11:03:02.060Z,30.70
2022-08-09T11:04:19.751Z,31.94
2022-08-09T11:07:00.319Z,28.98
2022-08-09T11:09:41.048Z,27.94
2022-08-09T11:12:18.706Z,24.74
2022-08-09T11:14:57.391Z,24.41
2022-08-09T11:17:24.427Z,23.61
2022-08-09T11:20:12.155Z,24.06
2022-08-09T11:22:47.176Z,26.25
2022-08-09T11:25:44.935Z,27.97
2022-08-09T11:28:54.045Z,29.98
2022-08-09T11:31:49.189Z,32.27
2022-08-09T11:34:24.479Z,33.49
2022-08-09T11:36:51.887Z,34.35
2022-08-09T11:39:18.464Z,35.33
2022-08-09T11:41:46.587Z,31.77
2022-08-09T11:44:15.402Z,27.63
2022-08-09T11:46:57.482Z,26.19
2022-08-09T11:50:53.409Z,24.82
2022-08-09T11:53:16.368Z,22.31
2022-08-09T11:55:51.929Z,21.00
2022-08-09T11:58:19.684Z,20.26
2022-08-09T12:01:09.037Z,18.79
2022-08-09T12:03:55.267Z,17.52
2022-08-09T12:06:32.505Z,17.33
2022-08-09T12:09:15.229Z,18.32
2022-08-09T12:12:02.938Z,17.10
2022-08-09T12:14:36.961Z,17.42
2022-08-09T12:17:34.733Z,15.50
2022-08-09T12:20:21.938Z,15.85
2022-08-09T12:22:56.944Z,15.55
2022-08-09T12:25:31.874Z,13.94
2022-08-09T12:28:58.678Z,13.03
2022-08-09T12:31:11.350Z,12.19
2022-08-09T12:33:58.948Z,12.06
2022-08-09T12:36:31.254Z,13.29
2022-08-09T12:38:59.489Z,12.90
2022-08-09T12:41:38.333Z,13.16
2022-08-09T12:44:10.141Z,14.24
2022-08-09T12:46:43.059Z,15.76
2022-08-09T12:49:10.445Z,17.26
2022-08-09T12:52:01.203Z,19.08
2022-08-09T12:54:24.584Z,19.89
2022-08-09T12:56:54.338Z,20.96
2022-08-09T12:59:23.424Z,21.65
2022-08-09T13:01:58.979Z,21.90
2022-08-09T13:04:36.319Z,22.44
2022-08-09T13:07:19.705Z,24.31
2022-08-09T13:09:55.807Z,25.51
2022-08-09T13:12:29.179Z,27.01
2022-08-09T13:15:08.430Z,27.65
2022-08-09T13:18:03.642Z,28.43
2022-08-09T13:20:37.678Z,28.92
2022-08-09T13:24:17.459Z,29.25
2022-08-09T13:26:10.057Z,30.56
2022-08-09T13:28:39.423Z,30.03
2022-08-09T13:32:16.645Z,30.86
2022-08-09T13:33:56.677Z,31.40
2022-08-09T13:36:41.110Z,31.05
2022-08-09T13:41:54.736Z,31.19
2022-08-09T13:42:12.703Z,31.66
2022-08-09T13:44:43.703Z,31.69
2022-08-09T13:47:25.354Z,31.52
2022-08-09T13:50:04.637Z,32.40
2022-08-09T13:52:39.053Z,32.06
2022-08-09T13:55:13.494Z,32.03
2022-08-09T13:57:47.295Z,30.44
2022-08-09T14:00:23.006Z,31.64
2022-08-09T14:03:03.485Z,31.73
2022-08-09T14:06:00.133Z,32.32
2022-08-09T14:08:30.439Z,32.65
2022-08-09T14:10:59.383Z,32.81
2022-08-09T14:14:14.817Z,32.66
2022-08-09T14:16:16.394Z,32.25
2022-08-09T14:18:45.785Z,31.99
2022-08-09T14:21:21.040Z,31.61
2022-08-09T14:23:55.176Z,32.09
2022-08-09T14:26:32.720Z,31.61
2022-08-09T14:29:25.864Z,31.12
2022-08-09T14:31:55.603Z,31.42
2022-08-09T14:34:31.724Z,31.65
2022-08-09T14:37:06.462Z,32.21
2022-08-09T14:39:45.743Z,33.10
2022-08-09T14:42:30.469Z,32.83
2022-08-09T14:46:55.115Z,33.27
2022-08-09T14:47:57.820Z,34.00
2022-08-09T14:50:26.944Z,33.00
2022-08-09T14:52:53.601Z,34.25
2022-08-09T14:55:21.238Z,34.51
2022-08-09T14:57:49.245Z,34.83
2022-08-09T15:00:16.701Z,34.14
2022-08-09T15:02:47.455Z,34.25
2022-08-09T15:05:18.678Z,34.55
2022-08-09T15:07:45.397Z,34.74
2022-08-09T15:10:21.780Z,34.77
2022-08-09T15:12:52.095Z,34.18
2022-08-09T15:15:18.638Z,33.96
2022-08-09T15:17:51.764Z,34.11
2022-08-09T15:21:58.054Z,34.08
2022-08-09T15:23:56.022Z,34.75
2022-08-09T15:25:53.697Z,35.00
2022-08-09T15:28:27.740Z,35.40
2022-08-09T15:31:01.360Z,35.72
2022-08-09T15:34:33.579Z,35.59
2022-08-09T15:36:28.451Z,35.90
2022-08-09T15:38:57.184Z,35.96
2022-08-09T15:41:31.785Z,36.18
2022-08-09T15:44:00.306Z,36.32
2022-08-09T15:46:33.428Z,36.56
2022-08-09T15:49:22.054Z,36.58
2022-08-09T15:52:03.323Z,36.66
2022-08-09T15:54:44.778Z,36.61
2022-08-09T15:57:35.966Z,36.65
2022-08-09T16:00:11.018Z,37.01
2022-08-09T16:02:53.742Z,37.38
2022-08-09T16:05:22.414Z,37.47
2022-08-09T16:07:50.471Z,37.51
2022-08-09T16:10:56.234Z,37.69
2022-08-09T16:13:04.806Z,37.81
2022-08-09T16:16:04.454Z,38.10
2022-08-09T16:18:32.295Z,37.54
2022-08-09T16:20:59.193Z,38.42
2022-08-09T16:23:26.379Z,38.55
2022-08-09T16:25:54.683Z,38.69
2022-08-09T16:28:28.999Z,39.04
2022-08-09T16:30:58.980Z,39.53
2022-08-09T16:33:26.661Z,40.48
2022-08-09T16:35:58.422Z,40.78
2022-08-09T16:38:27.425Z,41.16
2022-08-09T16:40:54.022Z,41.28
2022-08-09T16:43:22.247Z,42.36
2022-08-09T16:45:53.511Z,42.70
2022-08-09T16:48:50.483Z,42.44
2022-08-09T16:51:14.370Z,42.62
2022-08-09T16:54:08.875Z,42.42
2022-08-09T16:56:31.639Z,42.68
2022-08-09T16:58:59.334Z,42.83
2022-08-09T17:01:28.164Z,43.46
2022-08-09T17:04:00.210Z,43.38
2022-08-09T17:06:29.380Z,43.79
2022-08-09T17:09:11.821Z,43.92
2022-08-09T17:11:51.398Z,44.41
2022-08-09T17:14:27.377Z,44.65
2022-08-09T17:16:56.965Z,44.58
2022-08-09T17:19:27.617Z,44.68
2022-08-09T17:22:14.228Z,45.18
2022-08-09T17:24:41.495Z,45.29
2022-08-09T17:27:15.125Z,45.12
2022-08-09T17:29:45.540Z,45.41
2022-08-09T17:32:15.857Z,45.42
2022-08-09T17:35:07.302Z,46.12
2022-08-09T17:38:12.577Z,45.68
2022-08-09T17:40:21.774Z,46.27
2022-08-09T17:42:55.743Z,45.72
2022-08-09T17:45:37.431Z,45.60
2022-08-09T17:48:12.346Z,45.84
2022-08-09T17:50:38.727Z,46.10
2022-08-09T17:53:19.719Z,46.54
2022-08-09T17:55:51.976Z,46.68
2022-08-09T17:58:26.791Z,46.69
2022-08-09T18:00:56.638Z,46.66
2022-08-09T18:03:24.943Z,46.65
2022-08-09T18:05:53.261Z,46.94
2022-08-09T18:08:21.849Z,46.90
2022-08-09T18:11:00.999Z,46.85
2022-08-09T18:13:43.000Z,46.73
2022-08-09T18:16:16.382Z,46.71
2022-08-09T18:18:49.186Z,47.16
2022-08-09T18:21:23.038Z,47.28
2022-08-09T18:24:12.605Z,47.40
2022-08-09T18:26:38.117Z,47.52
2022-08-09T18:30:35.188Z,47.32
2022-08-09T18:31:55.635Z,47.38
2022-08-09T18:34:23.873Z,47.37
2022-08-09T18:36:50.910Z,47.49
2022-08-09T18:39:22.252Z,47.58
2022-08-09T18:41:52.969Z,47.71
2022-08-09T18:44:22.908Z,47.84
2022-08-09T18:47:04.956Z,48.15
2022-08-09T18:49:41.479Z,47.98
2022-08-09T18:52:11.708Z,48.10
2022-08-09T18:54:39.265Z,48.07
2022-08-09T18:57:15.412Z,48.09
2022-08-09T18:59:49.156Z,48.29
2022-08-09T19:02:30.407Z,48.32
2022-08-09T19:05:14.453Z,48.23
2022-08-09T19:07:59.100Z,48.68
2022-08-09T19:10:36.948Z,48.76
2022-08-09T19:13:23.457Z,48.89
2022-08-09T19:15:56.285Z,48.89
2022-08-09T19:18:36.317Z,48.97
2022-08-09T19:21:09.771Z,49.20
2022-08-09T19:24:32.870Z,49.44
2022-08-09T19:26:34.923Z,49.33
2022-08-09T19:29:15.175Z,49.14
2022-08-09T19:31:45.627Z,49.45
2022-08-09T19:34:21.409Z,49.61
2022-08-09T19:36:53.748Z,49.62
2022-08-09T19:39:29.091Z,49.98
2022-08-09T19:42:08.255Z,49.76
2022-08-09T19:44:35.324Z,49.83
2022-08-09T19:47:02.658Z,50.16
2022-08-09T19:50:09.217Z,50.22
2022-08-09T19:52:18.308Z,50.21
2022-08-09T19:54:44.990Z,50.15
2022-08-09T19:57:11.394Z,50.61
2022-08-09T19:59:58.858Z,50.55
2022-08-09T20:04:11.676Z,50.67
2022-08-09T20:05:14.850Z,50.64
2022-08-09T20:07:59.760Z,50.89
2022-08-09T20:10:36.588Z,50.82
2022-08-09T20:13:05.516Z,50.89
2022-08-09T20:16:38.492Z,51.03
2022-08-09T20:18:19.730Z,51.13
2022-08-09T20:20:47.085Z,51.68
2022-08-09T20:23:13.581Z,51.96
2022-08-09T20:25:52.868Z,51.99
2022-08-09T20:28:27.803Z,51.92
2022-08-09T20:31:04.881Z,51.89
2022-08-09T20:33:39.287Z,52.14
2022-08-09T20:36:10.800Z,52.02
2022-08-09T20:41:32.150Z,52.11
2022-08-09T20:44:02.558Z,52.46
2022-08-09T20:46:33.845Z,52.33
2022-08-09T20:49:10.340Z,52.45
2022-08-09T20:51:41.195Z,52.27
2022-08-09T20:54:12.752Z,52.49
2022-08-09T20:56:47.320Z,52.46
2022-08-09T20:59:17.692Z,52.79
2022-08-09T21:01:53.726Z,52.92
2022-08-09T21:05:51.660Z,52.99
2022-08-09T21:07:11.273Z,53.31
2022-08-09T21:09:56.808Z,53.17
2022-08-09T21:15:14.025Z,52.97
2022-08-09T21:18:23.417Z,53.16
2022-08-09T21:20:29.812Z,53.23
2022-08-09T21:22:57.450Z,53.63
2022-08-09T21:25:44.040Z,53.40
2022-08-09T21:28:34.247Z,53.56
2022-08-09T21:31:16.269Z,53.53
2022-08-09T21:33:46.151Z,53.85
2022-08-09T21:36:17.609Z,54.16
2022-08-09T21:38:45.454Z,54.01
2022-08-09T21:41:17.714Z,53.98
2022-08-09T21:43:56.269Z,54.16
2022-08-09T21:46:24.849Z,54.16
2022-08-09T21:48:52.304Z,54.21
2022-08-09T21:51:24.554Z,54.17
2022-08-09T21:54:03.367Z,54.17
2022-08-09T21:56:42.771Z,54.58
2022-08-09T22:01:59.220Z,54.98
2022-08-09T22:04:23.185Z,54.90
2022-08-09T22:07:09.907Z,54.86
2022-08-09T22:09:38.686Z,54.91
2022-08-09T22:12:18.339Z,55.09
2022-08-09T22:14:45.874Z,55.28
2022-08-09T22:17:13.303Z,55.30
2022-08-09T22:19:58.416Z,55.56
2022-08-09T22:22:26.496Z,55.68
2022-08-09T22:26:03.912Z,55.78
2022-08-09T22:27:39.436Z,55.34
2022-08-09T22:30:07.626Z,55.64
2022-08-09T22:32:34.655Z,55.88
2022-08-09T22:35:06.061Z,55.75
2022-08-09T22:37:35.721Z,56.13
2022-08-09T22:40:08.370Z,56.19
2022-08-09T22:42:34.979Z,56.53
2022-08-09T22:48:06.177Z,56.49
2022-08-09T22:48:12.119Z,56.45
2022-08-09T22:50:34.551Z,56.52
2022-08-09T22:53:03.520Z,56.64
2022-08-09T22:56:06.150Z,56.85
2022-08-09T22:58:30.575Z,56.76
2022-08-09T23:01:02.116Z,56.84
2022-08-09T23:04:02.562Z,57.03
2022-08-09T23:06:32.737Z,57.43
2022-08-09T23:09:03.895Z,57.46
2022-08-09T23:11:30.331Z,57.20
2022-08-09T23:13:56.783Z,57.69
2022-08-09T23:16:23.460Z,57.14
2022-08-09T23:18:49.971Z,57.47
2022-08-09T23:21:24.564Z,57.57
2022-08-09T23:24:05.646Z,57.71
2022-08-09T23:26:35.462Z,57.53
2022-08-09T23:29:01.957Z,57.38
2022-08-09T23:31:28.387Z,57.64
2022-08-09T23:33:54.867Z,57.74
2022-08-09T23:36:21.510Z,58.12
2022-08-09T23:38:49.185Z,58.26
2022-08-09T23:41:29.120Z,58.21
2022-08-09T23:44:00.668Z,58.25
2022-08-09T23:46:28.875Z,58.35
2022-08-09T23:48:55.756Z,58.39
2022-08-09T23:51:22.336Z,58.60
2022-08-09T23:53:50.375Z,58.54
2022-08-09T23:56:19.302Z,58.54
2022-08-09T23:59:05.569Z,58.59
